Terminal Aerodrome Forecast
Issued by NWS

Home | Current Version | Previous Version | Text Only | Print | Product List | Glossary On
Versions: 1 2 3 4 5 6 7 8 9 10 11 12 13 14 15 16 17 18 19 20 21 22
952
FTUS43 KILX 141138
TAFBMI
TAF
KBMI 141138Z 1412/1512 14014KT 6SM -SN OVC035
      TEMPO 1412/1413 3SM -SN BR OVC015
     FM141600 14015G25KT 3/4SM -SN BR OVC004
     FM142000 14014G21KT 1 1/2SM -SN BR OVC006
     FM150100 14012KT 3SM BR VCSH OVC004=

USA.gov is the U.S. government's official web portal to all federal, state and local government web resources and services.